Time;durP1;ratioP1;P1;durP2;ratioP2;P2;SDS_P1;SDS_P2;PMS_P1;PMS_P2;Temp;Humidity;BMP_temperature;BMP_pressure;BME280_temperature;BME280_humidity;BME280_pressure;Samples;Min_cycle;Max_cycle;Signal;HPM_P1;HPM_P2
2020/12/04 00:02:01;;;;;;;97.65;57.83;;;3.20;99.90;;;;;;5074479;28;20398;-71
2020/12/04 00:04:26;;;;;;;23.30;11.77;;;3.20;99.90;;;;;;5074563;28;20016;-71
2020/12/04 00:06:52;;;;;;;22.98;13.35;;;3.20;99.90;;;;;;5074933;28;20040;-72
2020/12/04 00:09:18;;;;;;;42.97;25.58;;;3.30;99.90;;;;;;5072920;28;20088;-71
2020/12/04 00:11:43;;;;;;;189.88;81.20;;;3.20;99.90;;;;;;5074166;28;20025;-71
2020/12/04 00:14:09;;;;;;;35.53;22.50;;;3.20;99.90;;;;;;5074452;28;20539;-72
2020/12/04 00:16:35;;;;;;;112.82;66.05;;;3.20;99.90;;;;;;5072840;28;20036;-70
2020/12/04 00:19:01;;;;;;;18.80;10.50;;;3.20;99.90;;;;;;5071845;28;20131;-73
2020/12/04 00:21:26;;;;;;;73.75;48.97;;;3.20;99.90;;;;;;5072041;28;20039;-72
2020/12/04 00:23:52;;;;;;;92.85;59.42;;;3.20;99.90;;;;;;5073997;28;20091;-73
2020/12/04 00:26:18;;;;;;;22.15;11.63;;;3.30;99.90;;;;;;5074589;28;20045;-70
2020/12/04 00:28:44;;;;;;;115.10;66.10;;;3.20;99.90;;;;;;5074356;28;20458;-69
2020/12/04 00:31:09;;;;;;;36.33;23.13;;;3.20;99.90;;;;;;5072667;28;20157;-69
2020/12/04 00:33:35;;;;;;;132.05;56.47;;;3.20;99.90;;;;;;5074002;28;20052;-69
2020/12/04 00:36:01;;;;;;;23.25;13.32;;;3.20;99.90;;;;;;5074140;28;20032;-69
2020/12/04 00:38:26;;;;;;;72.57;36.13;;;3.20;99.90;;;;;;5074271;28;20025;-70
2020/12/04 00:40:52;;;;;;;24.38;13.18;;;3.20;99.90;;;;;;5073446;28;20482;-70
2020/12/04 00:43:18;;;;;;;21.58;11.32;;;3.20;99.90;;;;;;5074158;28;20033;-69
2020/12/04 00:45:43;;;;;;;25.80;12.35;;;3.20;99.90;;;;;;5089497;28;20025;-69
2020/12/04 00:48:10;;;;;;;65.80;39.15;;;3.20;99.90;;;;;;5072650;28;20029;-70
2020/12/04 00:50:35;;;;;;;161.43;64.80;;;3.20;99.90;;;;;;5074148;28;20148;-71
2020/12/04 00:53:01;;;;;;;157.98;60.75;;;3.20;99.90;;;;;;5074113;28;20611;-70
2020/12/04 00:55:27;;;;;;;134.50;51.15;;;3.20;99.90;;;;;;5073715;28;20032;-72
2020/12/04 00:57:52;;;;;;;29.63;15.30;;;3.20;99.90;;;;;;5074136;28;20095;-70
2020/12/04 01:00:18;;;;;;;30.60;17.02;;;3.20;99.90;;;;;;5073774;28;20024;-70
2020/12/04 01:02:44;;;;;;;75.55;37.28;;;3.20;99.90;;;;;;5073305;28;20036;-71
2020/12/04 01:05:10;;;;;;;44.50;23.23;;;3.20;99.90;;;;;;5074072;28;20025;-72
2020/12/04 01:07:36;;;;;;;67.55;27.33;;;3.30;99.90;;;;;;5072263;28;20025;-70
2020/12/04 01:10:03;;;;;;;29.25;14.57;;;3.30;99.90;;;;;;5072962;28;20059;-70
2020/12/04 01:12:28;;;;;;;26.02;14.70;;;3.30;99.90;;;;;;5073285;28;20028;-69
2020/12/04 01:14:54;;;;;;;27.15;15.30;;;3.30;99.90;;;;;;5073087;28;20037;-73
2020/12/04 01:17:20;;;;;;;46.85;26.88;;;3.40;99.90;;;;;;5073219;28;20031;-73
2020/12/04 01:19:46;;;;;;;25.80;12.15;;;3.40;99.90;;;;;;5073568;28;20020;-69
2020/12/04 01:22:13;;;;;;;30.80;13.73;;;3.40;99.90;;;;;;5072178;28;20466;-71
2020/12/04 01:24:39;;;;;;;27.40;13.82;;;3.40;99.90;;;;;;5072972;28;20123;-72
2020/12/04 01:27:05;;;;;;;21.10;11.93;;;3.40;99.90;;;;;;5073508;28;20100;-71
2020/12/04 01:29:31;;;;;;;23.20;12.50;;;3.40;99.90;;;;;;5073106;28;20028;-72
2020/12/04 01:31:57;;;;;;;23.08;11.25;;;3.40;99.90;;;;;;5073120;28;20370;-70
2020/12/04 01:34:22;;;;;;;31.70;13.63;;;3.40;99.90;;;;;;5072117;28;20369;-73
2020/12/04 01:36:51;;;;;;;29.23;16.67;;;3.40;99.90;;;;;;5072795;28;20035;-71
2020/12/04 01:39:17;;;;;;;17.77;8.80;;;3.40;99.90;;;;;;5072684;28;20020;-72
2020/12/04 01:41:42;;;;;;;134.07;48.22;;;3.40;99.90;;;;;;5069228;28;20389;-71
2020/12/04 01:44:08;;;;;;;120.35;47.35;;;3.30;99.90;;;;;;5069059;28;20516;-69
2020/12/04 01:46:34;;;;;;;27.52;14.70;;;3.40;99.90;;;;;;5073546;28;20096;-72
2020/12/04 01:49:01;;;;;;;28.77;12.13;;;3.30;99.90;;;;;;5073950;28;20032;-73
2020/12/04 01:51:29;;;;;;;23.42;14.18;;;3.30;99.90;;;;;;5073254;28;20035;-74
2020/12/04 01:53:55;;;;;;;30.75;12.80;;;3.30;99.90;;;;;;5073817;28;20033;-74
2020/12/04 01:56:21;;;;;;;26.42;13.70;;;3.30;99.90;;;;;;5072051;28;20366;-71
2020/12/04 01:58:47;;;;;;;33.90;15.65;;;3.30;99.90;;;;;;5073061;28;20108;-71
2020/12/04 02:01:16;;;;;;;27.92;12.75;;;3.30;99.90;;;;;;5089102;28;20032;-73
2020/12/04 02:03:43;;;;;;;25.88;11.50;;;3.30;99.90;;;;;;5073016;28;20052;-73
2020/12/04 02:06:41;;;;;;;30.33;13.30;;;3.30;99.90;;;;;;5073136;28;20059;-69
2020/12/04 02:09:24;;;;;;;13.88;7.95;;;3.30;99.90;;;;;;5067595;28;20067;-71
2020/12/04 02:11:50;;;;;;;;;;;3.30;99.90;;;;;;5089020;28;20028;-71
2020/12/04 02:14:17;;;;;;;22.48;11.88;;;3.30;99.90;;;;;;5073389;28;19914;-72
2020/12/04 02:16:45;;;;;;;22.98;12.27;;;3.20;99.90;;;;;;5072308;28;20029;-70
2020/12/04 02:19:12;;;;;;;20.10;9.68;;;3.20;99.90;;;;;;5071624;28;20020;-71
2020/12/04 02:21:39;;;;;;;31.52;14.63;;;3.20;99.90;;;;;;5088749;28;20080;-72
2020/12/04 02:24:05;;;;;;;28.90;14.25;;;3.20;99.90;;;;;;5088957;28;20116;-70
2020/12/04 02:26:34;;;;;;;27.17;12.20;;;3.10;99.90;;;;;;5072964;28;20049;-72
2020/12/04 02:29:03;;;;;;;22.77;12.13;;;3.10;99.90;;;;;;5073381;28;20030;-70
2020/12/04 02:31:29;;;;;;;24.75;13.50;;;3.10;99.90;;;;;;5072934;28;20355;-72
2020/12/04 02:33:55;;;;;;;29.35;15.00;;;3.10;99.90;;;;;;5071750;28;20021;-71
2020/12/04 02:36:21;;;;;;;30.55;15.23;;;3.10;99.90;;;;;;5072849;28;20055;-72
2020/12/04 02:38:47;;;;;;;33.88;16.33;;;3.10;99.90;;;;;;5072517;28;20024;-72
2020/12/04 02:41:13;;;;;;;29.77;13.57;;;3.00;99.90;;;;;;5073238;28;20032;-72
2020/12/04 02:43:39;;;;;;;25.10;13.38;;;3.00;99.90;;;;;;5072807;28;20024;-70
2020/12/04 02:46:08;;;;;;;21.55;12.00;;;3.00;99.90;;;;;;5088338;28;20024;-69
2020/12/04 02:48:34;;;;;;;31.75;15.02;;;3.00;99.90;;;;;;5073654;28;20024;-71
2020/12/04 02:51:00;;;;;;;23.70;12.80;;;3.00;99.90;;;;;;5072992;28;20371;-73
2020/12/04 02:53:25;;;;;;;23.52;11.23;;;3.00;99.90;;;;;;5073143;28;20040;-73
2020/12/04 02:55:51;;;;;;;31.52;16.30;;;3.00;99.90;;;;;;5073027;28;20241;-72
2020/12/04 02:58:17;;;;;;;28.40;16.20;;;3.10;99.90;;;;;;5072476;28;20025;-74
2020/12/04 03:00:42;;;;;;;26.52;15.02;;;3.10;99.90;;;;;;5072553;28;20036;-73
2020/12/04 03:03:08;;;;;;;27.55;13.27;;;3.10;99.90;;;;;;5072768;28;20025;-72
2020/12/04 03:05:34;;;;;;;31.73;13.20;;;3.10;99.90;;;;;;5072345;28;20031;-72
2020/12/04 03:08:00;;;;;;;25.20;12.95;;;3.10;99.90;;;;;;5072906;28;20036;-71
2020/12/04 03:10:25;;;;;;;21.30;12.10;;;3.10;99.90;;;;;;5073318;28;20069;-72
2020/12/04 03:12:51;;;;;;;21.48;10.80;;;3.10;99.90;;;;;;5076860;28;20391;-72
2020/12/04 03:15:17;;;;;;;21.88;12.25;;;3.20;99.90;;;;;;5076381;28;20020;-71
2020/12/04 03:17:42;;;;;;;20.98;10.98;;;3.20;99.90;;;;;;5075535;28;20415;-71
2020/12/04 03:20:08;;;;;;;24.92;12.65;;;3.20;99.90;;;;;;5076507;28;20040;-72
2020/12/04 03:22:34;;;;;;;19.65;10.93;;;3.20;99.90;;;;;;5075186;28;20032;-69
2020/12/04 03:25:00;;;;;;;26.85;11.57;;;3.20;99.90;;;;;;5076515;28;20105;-72
2020/12/04 03:27:26;;;;;;;21.40;11.23;;;3.30;99.90;;;;;;5076712;28;20021;-72
2020/12/04 03:29:51;;;;;;;20.25;10.75;;;3.30;99.90;;;;;;5076771;28;20153;-72
2020/12/04 03:32:17;;;;;;;19.88;11.57;;;3.30;99.90;;;;;;5075120;28;20400;-73
2020/12/04 03:34:43;;;;;;;18.02;10.50;;;3.30;99.90;;;;;;5075976;28;20378;-71
2020/12/04 03:37:09;;;;;;;17.90;8.73;;;3.30;99.90;;;;;;5076105;28;20493;-70
2020/12/04 03:39:35;;;;;;;22.98;10.60;;;3.30;99.90;;;;;;5074856;28;20024;-70
2020/12/04 03:42:01;;;;;;;20.08;11.05;;;3.30;99.90;;;;;;5075776;28;20021;-71
2020/12/04 03:44:27;;;;;;;17.90;9.38;;;3.30;99.90;;;;;;5075874;28;20107;-72
2020/12/04 03:46:53;;;;;;;22.73;11.10;;;3.30;99.90;;;;;;5075997;28;20086;-71
2020/12/04 03:49:19;;;;;;;21.75;11.80;;;3.30;99.90;;;;;;5073115;28;20052;-71
2020/12/04 03:51:45;;;;;;;17.52;9.38;;;3.30;99.90;;;;;;5074895;28;20029;-70
2020/12/04 03:54:12;;;;;;;23.25;10.90;;;3.40;99.90;;;;;;5075652;28;20111;-72
2020/12/04 03:56:38;;;;;;;14.82;7.93;;;3.40;99.90;;;;;;5075565;28;20478;-73
2020/12/04 03:59:04;;;;;;;20.77;10.00;;;3.40;99.90;;;;;;5076300;28;20032;-73
2020/12/04 04:01:31;;;;;;;15.68;8.68;;;3.40;99.90;;;;;;5075510;28;20036;-72
2020/12/04 04:03:57;;;;;;;17.23;9.13;;;3.40;99.90;;;;;;5075367;28;20378;-73
2020/12/04 04:06:23;;;;;;;19.30;10.25;;;3.40;99.90;;;;;;5091265;28;20382;-72
2020/12/04 04:08:49;;;;;;;16.85;9.27;;;3.40;99.90;;;;;;5074573;28;20054;-70
2020/12/04 04:11:15;;;;;;;20.15;10.38;;;3.40;99.90;;;;;;5075366;28;20467;-72
2020/12/04 04:13:40;;;;;;;20.88;10.48;;;3.40;99.90;;;;;;5075850;28;20025;-71
2020/12/04 04:16:06;;;;;;;18.50;9.05;;;3.40;99.90;;;;;;5075703;28;20028;-70
2020/12/04 04:18:33;;;;;;;19.10;9.82;;;3.40;99.90;;;;;;5075092;28;20020;-71
2020/12/04 04:21:00;;;;;;;22.25;9.10;;;3.50;99.90;;;;;;5073991;28;20032;-73
2020/12/04 04:23:25;;;;;;;19.10;9.88;;;3.40;99.90;;;;;;5073818;28;20063;-71
2020/12/04 04:25:51;;;;;;;11.00;6.72;;;3.40;99.90;;;;;;5090652;28;20288;-71
2020/12/04 04:28:17;;;;;;;12.63;8.70;;;3.50;99.90;;;;;;5075227;28;20029;-71
2020/12/04 04:30:43;;;;;;;15.10;7.57;;;3.50;99.90;;;;;;5075070;28;20024;-70
2020/12/04 04:33:08;;;;;;;18.70;9.77;;;3.50;99.90;;;;;;5075477;28;20025;-74
2020/12/04 04:35:34;;;;;;;16.13;9.07;;;3.40;99.90;;;;;;5074971;28;20028;-72
2020/12/04 04:38:01;;;;;;;14.90;8.88;;;3.40;99.90;;;;;;5074975;28;20074;-71
2020/12/04 04:40:27;;;;;;;17.60;9.93;;;3.40;99.90;;;;;;5075129;28;20112;-72
2020/12/04 04:43:09;;;;;;;16.20;8.18;;;3.40;99.90;;;;;;5074736;28;20090;-72
2020/12/04 04:45:36;;;;;;;11.95;6.95;;;3.40;99.90;;;;;;5074638;28;20137;-71
2020/12/04 04:48:11;;;;;;;15.82;7.70;;;3.40;99.90;;;;;;5074680;28;20497;-71
2020/12/04 04:50:37;;;;;;;16.80;8.52;;;3.40;99.90;;;;;;5074919;28;20037;-71
2020/12/04 04:53:02;;;;;;;16.42;9.07;;;3.40;99.90;;;;;;5073280;28;20359;-72
2020/12/04 04:55:28;;;;;;;14.77;8.15;;;3.40;99.90;;;;;;5075014;28;20036;-71
2020/12/04 04:58:05;;;;;;;15.40;8.63;;;3.40;99.90;;;;;;5074465;28;20059;-71
2020/12/04 05:00:31;;;;;;;15.60;8.07;;;3.40;99.90;;;;;;5074152;28;20036;-71
2020/12/04 05:02:57;;;;;;;16.50;9.10;;;3.40;99.90;;;;;;5074405;28;20462;-71
2020/12/04 05:05:40;;;;;;;13.10;6.18;;;3.40;99.90;;;;;;5074066;28;20031;-71
2020/12/04 05:08:14;;;;;;;16.15;9.38;;;3.40;99.90;;;;;;5073402;28;20029;-72
2020/12/04 05:10:40;;;;;;;17.77;8.23;;;3.40;99.90;;;;;;5073272;28;20120;-73
2020/12/04 05:13:06;;;;;;;17.50;9.02;;;3.40;99.90;;;;;;5073951;28;20028;-72
2020/12/04 05:15:32;;;;;;;19.63;9.50;;;3.40;99.90;;;;;;5074616;28;20510;-72
2020/12/04 05:18:13;;;;;;;9.88;6.10;;;3.40;99.90;;;;;;5074803;28;20028;-71
2020/12/04 05:20:49;;;;;;;17.45;8.63;;;3.40;99.90;;;;;;5070267;28;20024;-71
2020/12/04 05:23:15;;;;;;;19.08;8.98;;;3.40;99.90;;;;;;5074784;28;20112;-74
2020/12/04 05:25:43;;;;;;;16.35;9.40;;;3.40;99.90;;;;;;5081797;28;20076;-72
2020/12/04 05:28:16;;;;;;;19.15;9.02;;;3.40;99.90;;;;;;5074714;28;20073;-73
2020/12/04 05:30:44;;;;;;;13.40;7.63;;;3.30;99.90;;;;;;5069464;28;20100;-71
2020/12/04 05:33:11;;;;;;;15.98;8.45;;;3.30;99.90;;;;;;5072533;28;20032;-71
2020/12/04 05:35:38;;;;;;;16.70;7.60;;;3.30;99.90;;;;;;5072690;28;20108;-70
2020/12/04 05:38:15;;;;;;;14.05;7.60;;;3.30;99.90;;;;;;5073976;28;20024;-73
2020/12/04 05:40:43;;;;;;;12.48;6.95;;;3.30;99.90;;;;;;5072569;28;20045;-72
2020/12/04 05:43:10;;;;;;;16.63;9.07;;;3.30;99.90;;;;;;5073903;28;20042;-72
2020/12/04 05:45:35;;;;;;;16.58;9.65;;;3.30;99.90;;;;;;5072780;28;20579;-71
2020/12/04 05:48:10;;;;;;;15.70;7.47;;;3.30;99.90;;;;;;5089098;28;20107;-72
2020/12/04 05:50:37;;;;;;;17.25;9.05;;;3.30;99.90;;;;;;5073980;28;20028;-70
2020/12/04 05:53:03;;;;;;;15.75;8.65;;;3.30;99.90;;;;;;5072409;28;20572;-70
2020/12/04 05:55:28;;;;;;;19.48;8.93;;;3.20;99.90;;;;;;5072211;28;20128;-72
2020/12/04 05:58:00;;;;;;;11.40;7.15;;;3.20;99.90;;;;;;5073757;28;20117;-73
2020/12/04 06:00:26;;;;;;;18.50;11.30;;;3.20;99.90;;;;;;5074153;28;20454;-73
2020/12/04 06:03:03;;;;;;;17.52;9.38;;;3.20;99.90;;;;;;5089963;28;20381;-71
2020/12/04 06:05:29;;;;;;;17.02;8.82;;;3.20;99.90;;;;;;5071668;28;20031;-71
2020/12/04 06:08:03;;;;;;;18.05;10.48;;;3.20;99.90;;;;;;5070110;28;20028;-73
2020/12/04 06:10:31;;;;;;;23.85;11.32;;;3.20;99.90;;;;;;5072236;28;20027;-71
2020/12/04 06:12:58;;;;;;;18.85;10.10;;;3.20;99.90;;;;;;5073214;28;20045;-71
2020/12/04 06:15:33;;;;;;;16.13;8.73;;;3.20;99.90;;;;;;5071836;28;20048;-73
2020/12/04 06:18:02;;;;;;;14.50;8.10;;;3.20;99.90;;;;;;5072989;28;20082;-72
2020/12/04 06:20:29;;;;;;;20.13;8.77;;;3.20;99.90;;;;;;5073077;28;20077;-73
2020/12/04 06:23:11;;;;;;;22.55;11.05;;;3.20;99.90;;;;;;5072784;28;20099;-71
2020/12/04 06:25:52;;;;;;;22.55;12.20;;;3.30;99.90;;;;;;5073547;28;20494;-70
2020/12/04 06:28:25;;;;;;;19.35;9.20;;;3.30;99.90;;;;;;5073215;28;20047;-71
2020/12/04 06:31:14;;;;;;;19.10;9.55;;;3.30;99.90;;;;;;5088268;28;20036;-71
2020/12/04 06:33:43;;;;;;;23.38;11.20;;;3.40;99.90;;;;;;5067602;28;20112;-70
2020/12/04 06:36:11;;;;;;;30.50;11.60;;;3.40;99.90;;;;;;5071771;28;20025;-70
2020/12/04 06:38:39;;;;;;;22.08;11.05;;;3.40;99.90;;;;;;5088421;28;20112;-69
2020/12/04 06:41:25;;;;;;;17.58;9.35;;;3.40;99.90;;;;;;5072674;28;20027;-70
2020/12/04 06:44:15;;;;;;;16.00;7.15;;;3.50;99.90;;;;;;5071218;28;20118;-70
2020/12/04 06:46:46;;;;;;;16.33;8.13;;;3.50;99.90;;;;;;5073021;28;20032;-71
2020/12/04 06:52:16;;;;;;;13.45;7.95;;;3.60;99.90;;;;;;5072834;28;20121;-72
2020/12/04 06:54:50;;;;;;;17.00;8.52;;;3.60;99.90;;;;;;5072950;28;20500;-70
2020/12/04 06:57:18;;;;;;;17.63;8.77;;;3.60;99.90;;;;;;5072968;28;20024;-72
2020/12/04 06:59:44;;;;;;;9.60;6.25;;;3.70;99.90;;;;;;5072633;28;20466;-71
2020/12/04 07:02:15;;;;;;;16.83;8.88;;;3.70;99.90;;;;;;5072772;28;20036;-71
2020/12/04 07:04:49;;;;;;;14.20;7.72;;;3.70;99.90;;;;;;5071056;28;20032;-71
2020/12/04 07:07:24;;;;;;;18.02;8.50;;;3.80;99.90;;;;;;5069769;28;20025;-72
2020/12/04 07:09:57;;;;;;;16.75;9.40;;;3.80;99.90;;;;;;5071374;28;20458;-71
2020/12/04 07:12:26;;;;;;;21.20;11.10;;;3.80;99.90;;;;;;5069844;28;20354;-70
2020/12/04 07:14:54;;;;;;;20.33;10.93;;;3.80;99.90;;;;;;5070236;28;20044;-72
2020/12/04 07:17:22;;;;;;;18.08;10.27;;;3.80;99.90;;;;;;5072881;28;20458;-71
2020/12/04 07:19:50;;;;;;;18.45;9.57;;;3.90;99.90;;;;;;5070825;28;20021;-70
2020/12/04 07:22:20;;;;;;;13.70;7.40;;;3.90;99.90;;;;;;5071028;28;20143;-72
2020/12/04 07:24:48;;;;;;;18.13;7.85;;;4.00;99.90;;;;;;5069641;28;20091;-71
2020/12/04 07:27:15;;;;;;;15.18;8.65;;;4.00;99.90;;;;;;5084362;28;20454;-71
2020/12/04 07:29:42;;;;;;;10.95;5.75;;;4.00;99.90;;;;;;5070041;28;20025;-70
2020/12/04 07:32:08;;;;;;;13.25;7.45;;;4.00;99.90;;;;;;5070715;28;20017;-72
2020/12/04 07:34:38;;;;;;;14.25;8.57;;;4.10;99.90;;;;;;5067382;28;20021;-69
2020/12/04 07:37:09;;;;;;;13.65;7.65;;;4.10;99.90;;;;;;5085300;28;20024;-72
2020/12/04 07:39:39;;;;;;;17.00;9.68;;;4.10;99.90;;;;;;5069385;28;20100;-71
2020/12/04 07:42:07;;;;;;;16.08;8.15;;;4.20;99.90;;;;;;5070825;28;20076;-71
2020/12/04 07:44:38;;;;;;;15.45;8.18;;;4.30;99.90;;;;;;5067080;28;20032;-71
2020/12/04 07:47:11;;;;;;;16.00;8.07;;;4.30;99.90;;;;;;5071085;28;20429;-72
2020/12/04 07:49:45;;;;;;;15.48;7.63;;;4.30;99.90;;;;;;5072111;28;20351;-72
2020/12/04 07:52:23;;;;;;;9.55;6.55;;;4.40;99.90;;;;;;5071674;28;20032;-73
2020/12/04 07:55:03;;;;;;;11.25;6.57;;;4.40;99.90;;;;;;5070405;28;20462;-73
2020/12/04 07:57:36;;;;;;;17.55;8.93;;;4.50;99.90;;;;;;5074671;28;20119;-74
2020/12/04 08:00:06;;;;;;;14.15;8.77;;;4.60;99.90;;;;;;5065727;28;20483;-70
2020/12/04 08:02:33;;;;;;;13.48;7.35;;;4.70;99.90;;;;;;5075617;28;20040;-68
2020/12/04 08:04:59;;;;;;;19.95;9.27;;;4.70;99.90;;;;;;5074231;28;20039;-71
2020/12/04 08:07:29;;;;;;;13.10;7.32;;;4.80;99.90;;;;;;5073820;28;20458;-70
2020/12/04 08:09:55;;;;;;;14.88;6.70;;;4.80;99.90;;;;;;5074659;28;20032;-69
2020/12/04 08:12:33;;;;;;;9.18;5.72;;;4.80;99.90;;;;;;5073735;28;20021;-70
2020/12/04 08:15:01;;;;;;;9.98;4.90;;;4.80;99.90;;;;;;5074369;28;20016;-72
2020/12/04 08:17:29;;;;;;;9.45;4.90;;;4.80;99.90;;;;;;5073646;28;20024;-69
2020/12/04 08:19:56;;;;;;;12.25;5.78;;;4.80;99.90;;;;;;5072236;28;20016;-70
2020/12/04 08:22:33;;;;;;;8.15;4.32;;;4.90;99.90;;;;;;5073726;28;20453;-69
2020/12/04 08:27:32;;;;;;;9.75;4.32;;;4.90;99.90;;;;;;5075618;28;20025;-70
2020/12/04 08:30:18;;;;;;;8.82;4.10;;;4.90;99.90;;;;;;5090717;28;20029;-71
2020/12/04 08:32:46;;;;;;;7.18;3.90;;;4.90;99.90;;;;;;5075129;28;20382;-70
2020/12/04 08:35:18;;;;;;;7.05;3.92;;;4.90;99.90;;;;;;5083563;28;20044;-71
2020/12/04 08:37:48;;;;;;;6.40;3.88;;;5.00;99.90;;;;;;5071622;28;20089;-70
2020/12/04 08:40:27;;;;;;;12.65;5.68;;;5.00;99.90;;;;;;5068942;28;20074;-70
2020/12/04 08:42:54;;;;;;;11.15;6.25;;;5.00;99.90;;;;;;5071732;28;20159;-73
2020/12/04 08:45:29;;;;;;;15.13;5.75;;;5.10;99.90;;;;;;5069854;28;20020;-71
2020/12/04 08:48:04;;;;;;;14.77;7.28;;;5.20;99.90;;;;;;5073156;28;20036;-71
2020/12/04 08:50:30;;;;;;;13.13;6.70;;;5.30;99.90;;;;;;5074766;28;20416;-70
2020/12/04 08:52:56;;;;;;;13.73;6.97;;;5.40;99.90;;;;;;5074489;28;20104;-72
2020/12/04 08:55:26;;;;;;;11.40;5.82;;;5.40;99.90;;;;;;5074942;28;20020;-69
2020/12/04 08:57:55;;;;;;;10.38;5.22;;;5.80;99.90;;;;;;5072666;28;20721;-69
2020/12/04 09:00:27;;;;;;;6.13;3.78;;;5.70;99.90;;;;;;5065722;28;20166;-70
2020/12/04 09:02:54;;;;;;;7.63;4.47;;;5.70;99.90;;;;;;5070693;28;20111;-71
2020/12/04 09:05:19;;;;;;;8.13;3.95;;;5.70;99.90;;;;;;5070633;28;20038;-69
2020/12/04 09:07:45;;;;;;;8.50;4.53;;;5.70;99.90;;;;;;5071852;28;20377;-71
2020/12/04 09:10:15;;;;;;;7.97;4.03;;;;;;;;;;5073505;28;20125;-70
2020/12/04 09:12:42;;;;;;;10.82;6.03;;;5.00;99.90;;;;;;5069793;28;20032;-69
2020/12/04 09:15:10;;;;;;;11.40;5.70;;;;;;;;;;5068250;28;20074;-70
2020/12/04 09:17:36;;;;;;;6.57;4.53;;;;;;;;;;5066661;28;20021;-74
2020/12/04 09:20:04;;;;;;;7.93;4.78;;;6.00;99.90;;;;;;5072706;28;20025;-72
2020/12/04 09:22:30;;;;;;;8.75;4.25;;;6.00;99.90;;;;;;5074396;28;20025;-71
2020/12/04 09:24:59;;;;;;;7.65;4.25;;;6.10;99.90;;;;;;5073088;28;20040;-72
2020/12/04 09:27:25;;;;;;;9.07;5.35;;;6.10;99.90;;;;;;5074279;28;20056;-71
2020/12/04 09:29:51;;;;;;;9.80;4.53;;;6.40;99.90;;;;;;5074255;28;20355;-71
2020/12/04 09:32:18;;;;;;;12.35;7.07;;;6.40;99.90;;;;;;5073577;28;20099;-70
2020/12/04 09:34:45;;;;;;;11.20;6.45;;;6.50;99.90;;;;;;5073690;28;20351;-71
2020/12/04 09:37:29;;;;;;;11.35;5.80;;;6.60;99.90;;;;;;5074224;28;20069;-70
2020/12/04 09:39:57;;;;;;;8.10;5.10;;;6.60;99.90;;;;;;5074025;28;20072;-71
2020/12/04 09:42:24;;;;;;;9.82;5.57;;;6.30;99.90;;;;;;5068442;28;20043;-70
2020/12/04 09:44:51;;;;;;;10.98;6.28;;;6.40;99.90;;;;;;5073692;28;20036;-70
2020/12/04 09:47:18;;;;;;;9.35;5.32;;;6.40;99.90;;;;;;5073516;28;20060;-72
2020/12/04 09:49:45;;;;;;;11.77;6.88;;;6.50;99.90;;;;;;5072805;28;20466;-74
2020/12/04 09:52:13;;;;;;;10.18;5.57;;;6.60;99.90;;;;;;5072048;28;20104;-72
2020/12/04 09:54:40;;;;;;;7.93;4.30;;;6.60;99.90;;;;;;5072047;28;20354;-73
2020/12/04 09:57:08;;;;;;;10.88;3.90;;;6.50;99.90;;;;;;5073301;28;20020;-72
2020/12/04 09:59:35;;;;;;;8.38;4.47;;;6.40;99.90;;;;;;5072968;28;20044;-72
2020/12/04 10:02:02;;;;;;;8.35;5.30;;;6.40;99.90;;;;;;5072139;28;20028;-71
2020/12/04 10:04:28;;;;;;;10.45;5.03;;;6.30;99.90;;;;;;5072364;28;20059;-74
2020/12/04 10:06:55;;;;;;;12.40;5.68;;;6.40;99.90;;;;;;5071688;28;20370;-74
2020/12/04 10:09:22;;;;;;;11.18;6.38;;;6.40;99.90;;;;;;5067375;28;20021;-75
2020/12/04 10:11:49;;;;;;;7.22;4.55;;;6.50;99.90;;;;;;5085872;28;20032;-71
2020/12/04 10:14:16;;;;;;;10.07;4.85;;;6.40;99.90;;;;;;5067993;28;20410;-70
2020/12/04 10:16:43;;;;;;;11.05;6.68;;;6.40;99.90;;;;;;5068755;28;20093;-74
2020/12/04 10:19:11;;;;;;;13.00;7.32;;;6.30;99.90;;;;;;5070999;28;20032;-73
2020/12/04 10:21:37;;;;;;;12.70;5.97;;;6.30;99.90;;;;;;5072526;28;20028;-71
2020/12/04 10:24:05;;;;;;;10.00;5.72;;;6.40;99.90;;;;;;5072526;28;20041;-71
2020/12/04 10:26:31;;;;;;;16.77;5.22;;;6.40;99.90;;;;;;5069730;28;20094;-71
2020/12/04 10:28:57;;;;;;;11.98;6.47;;;6.40;99.90;;;;;;5067213;28;20390;-69
2020/12/04 10:31:23;;;;;;;12.50;6.70;;;6.40;99.90;;;;;;5072533;28;20044;-71
2020/12/04 10:33:49;;;;;;;9.23;5.18;;;6.50;99.90;;;;;;5071521;28;20482;-72
2020/12/04 10:36:15;;;;;;;10.30;6.00;;;6.60;99.90;;;;;;5070904;28;20028;-72
2020/12/04 10:38:41;;;;;;;11.00;5.57;;;6.60;99.90;;;;;;5071764;28;20058;-74
2020/12/04 10:41:08;;;;;;;11.45;6.63;;;6.70;99.90;;;;;;5072315;28;20480;-70
2020/12/04 10:43:34;;;;;;;8.35;5.47;;;6.80;99.90;;;;;;5072750;28;20032;-71
2020/12/04 10:46:00;;;;;;;9.65;4.85;;;6.90;99.90;;;;;;5072848;28;20036;-73
2020/12/04 10:48:26;;;;;;;14.93;6.80;;;6.80;99.90;;;;;;5070917;28;20035;-73
2020/12/04 10:50:52;;;;;;;14.32;7.07;;;6.90;99.90;;;;;;5072349;28;20028;-70
2020/12/04 10:53:19;;;;;;;12.68;6.72;;;6.90;99.90;;;;;;5071269;28;20435;-72
2020/12/04 10:55:45;;;;;;;15.38;7.50;;;6.90;99.90;;;;;;5072192;28;20362;-72
2020/12/04 10:58:11;;;;;;;13.23;5.90;;;7.00;99.90;;;;;;5072735;28;20043;-74
2020/12/04 11:00:38;;;;;;;8.35;5.18;;;7.00;99.90;;;;;;5071620;28;20029;-70
2020/12/04 11:05:49;;;;;;;9.70;5.53;;;6.90;99.90;;;;;;5070770;28;20086;-71
2020/12/04 11:08:15;;;;;;;9.20;5.93;;;6.90;99.90;;;;;;5071378;28;20032;-70
2020/12/04 11:10:42;;;;;;;13.07;6.50;;;6.90;99.90;;;;;;5071384;28;20040;-70
2020/12/04 11:13:08;;;;;;;12.98;6.30;;;6.90;99.90;;;;;;5071037;28;20016;-72
2020/12/04 11:15:34;;;;;;;6.70;4.72;;;6.80;99.90;;;;;;5070057;28;20066;-72
2020/12/04 11:18:00;;;;;;;9.70;5.03;;;6.70;99.90;;;;;;5070875;28;20024;-70
2020/12/04 11:20:31;;;;;;;5.38;3.78;;;6.70;99.90;;;;;;5070053;28;20043;-73
2020/12/04 11:22:56;;;;;;;8.43;5.15;;;6.60;99.90;;;;;;5069507;28;20039;-70
2020/12/04 11:25:22;;;;;;;13.10;6.90;;;6.60;99.90;;;;;;5070686;28;20048;-75
2020/12/04 11:27:49;;;;;;;12.60;6.80;;;6.60;99.90;;;;;;5072119;28;20029;-71
2020/12/04 11:30:18;;;;;;;16.42;6.70;;;6.60;99.90;;;;;;5068885;28;20032;-71
2020/12/04 11:32:48;;;;;;;11.43;6.60;;;6.70;99.90;;;;;;5073759;28;20355;-72
2020/12/04 11:35:15;;;;;;;13.23;7.88;;;6.70;99.90;;;;;;5076972;28;20029;-72
2020/12/04 11:37:44;;;;;;;11.50;7.28;;;6.80;99.90;;;;;;5074766;28;20023;-71
2020/12/04 11:40:11;;;;;;;14.65;7.80;;;6.90;99.90;;;;;;5076484;28;20029;-72
2020/12/04 11:42:44;;;;;;;9.98;5.68;;;6.90;99.90;;;;;;5077502;28;20047;-71
2020/12/04 11:45:16;;;;;;;14.43;6.10;;;6.80;99.90;;;;;;5075625;28;20077;-73
2020/12/04 11:47:43;;;;;;;9.95;5.65;;;6.90;99.90;;;;;;5075974;28;20112;-72
2020/12/04 11:50:14;;;;;;;8.95;6.00;;;6.90;99.90;;;;;;5076034;28;20414;-71
2020/12/04 11:52:41;;;;;;;11.25;7.57;;;6.90;99.90;;;;;;5075480;28;20108;-70
2020/12/04 11:55:08;;;;;;;19.23;8.30;;;7.00;99.90;;;;;;5075877;28;20067;-72
2020/12/04 11:57:34;;;;;;;12.55;7.32;;;7.00;99.90;;;;;;5075984;28;20021;-72
2020/12/04 12:00:00;;;;;;;18.27;7.75;;;7.00;99.90;;;;;;5089775;28;20070;-69
2020/12/04 12:02:27;;;;;;;17.23;8.45;;;7.00;99.90;;;;;;5073713;28;20090;-70
2020/12/04 12:04:53;;;;;;;13.48;6.60;;;7.00;99.90;;;;;;5074079;28;20056;-70
2020/12/04 12:07:20;;;;;;;16.02;8.60;;;7.00;99.90;;;;;;5072829;28;20021;-73
2020/12/04 12:09:49;;;;;;;13.98;8.18;;;7.10;99.90;;;;;;5074053;28;20409;-75
2020/12/04 12:12:21;;;;;;;13.55;7.57;;;7.10;99.90;;;;;;5069747;28;20074;-75
2020/12/04 12:14:48;;;;;;;16.85;7.28;;;7.10;99.90;;;;;;5073958;28;20025;-74
2020/12/04 12:17:15;;;;;;;8.85;6.28;;;7.10;99.90;;;;;;5087416;28;20020;-73
2020/12/04 12:19:42;;;;;;;12.25;6.70;;;7.10;99.90;;;;;;5074431;28;20524;-75
2020/12/04 12:22:09;;;;;;;12.65;7.07;;;7.00;99.90;;;;;;5072162;28;20029;-76
2020/12/04 12:24:40;;;;;;;13.27;7.32;;;7.10;99.90;;;;;;5073903;28;20152;-71
2020/12/04 12:27:06;;;;;;;20.65;10.52;;;7.10;99.90;;;;;;5073886;28;20020;-73
2020/12/04 12:29:33;;;;;;;12.77;6.70;;;7.10;99.90;;;;;;5075174;28;20414;-73
2020/12/04 12:31:59;;;;;;;11.43;7.45;;;7.10;99.90;;;;;;5075084;28;20104;-72
2020/12/04 12:37:11;;;;;;;18.73;9.77;;;7.10;99.90;;;;;;5073394;28;20496;-72
2020/12/04 12:39:37;;;;;;;19.20;9.60;;;7.20;99.90;;;;;;5071392;28;20431;-73
2020/12/04 12:42:07;;;;;;;13.70;8.25;;;7.10;99.90;;;;;;5073176;28;20038;-73
2020/12/04 12:44:34;;;;;;;18.23;10.23;;;7.20;99.90;;;;;;5074657;28;20099;-70
2020/12/04 12:46:59;;;;;;;13.18;7.18;;;7.10;99.90;;;;;;5074950;28;20021;-72
2020/12/04 12:49:25;;;;;;;16.95;8.45;;;7.10;99.90;;;;;;5074541;28;20055;-72
2020/12/04 12:51:51;;;;;;;13.00;7.93;;;7.10;99.90;;;;;;5074922;28;20116;-74
2020/12/04 12:54:17;;;;;;;15.20;7.38;;;7.10;99.90;;;;;;5074330;28;20024;-73
2020/12/04 12:56:47;;;;;;;15.38;7.22;;;7.10;99.90;;;;;;5074792;28;20031;-72
2020/12/04 12:59:13;;;;;;;16.02;9.02;;;7.10;99.90;;;;;;5074763;28;20033;-73
2020/12/04 13:01:38;;;;;;;16.42;8.88;;;7.10;99.90;;;;;;5074259;28;20040;-73